sensor_id;sensor_type;location;lat;lon;timestamp;P1;durP1;ratioP1;P2;durP2;ratioP2
68212;SDS011;55035;47.792;8.724;2022-10-16T00:00:34;8.15;;;2.88;;
68212;SDS011;55035;47.792;8.724;2022-10-16T00:03:02;8.25;;;2.83;;
68212;SDS011;55035;47.792;8.724;2022-10-16T00:05:29;10.25;;;2.83;;
68212;SDS011;55035;47.792;8.724;2022-10-16T00:07:56;7.57;;;2.70;;
68212;SDS011;55035;47.792;8.724;2022-10-16T00:10:24;7.80;;;2.47;;
68212;SDS011;55035;47.792;8.724;2022-10-16T00:12:51;6.75;;;2.55;;
68212;SDS011;55035;47.792;8.724;2022-10-16T00:15:24;7.30;;;2.35;;
68212;SDS011;55035;47.792;8.724;2022-10-16T00:17:50;6.50;;;2.67;;
68212;SDS011;55035;47.792;8.724;2022-10-16T00:20:17;7.00;;;2.20;;
68212;SDS011;55035;47.792;8.724;2022-10-16T00:23:03;9.00;;;2.25;;
68212;SDS011;55035;47.792;8.724;2022-10-16T00:25:32;8.82;;;2.30;;
68212;SDS011;55035;47.792;8.724;2022-10-16T00:27:59;6.97;;;2.13;;
68212;SDS011;55035;47.792;8.724;2022-10-16T00:30:26;8.25;;;2.20;;
68212;SDS011;55035;47.792;8.724;2022-10-16T00:32:54;6.88;;;2.20;;
68212;SDS011;55035;47.792;8.724;2022-10-16T00:35:21;8.85;;;2.17;;
68212;SDS011;55035;47.792;8.724;2022-10-16T00:37:48;6.60;;;2.25;;
68212;SDS011;55035;47.792;8.724;2022-10-16T00:40:16;6.03;;;2.30;;
68212;SDS011;55035;47.792;8.724;2022-10-16T00:42:44;7.00;;;2.20;;
68212;SDS011;55035;47.792;8.724;2022-10-16T00:45:10;6.20;;;2.15;;
68212;SDS011;55035;47.792;8.724;2022-10-16T00:47:39;9.00;;;2.30;;
68212;SDS011;55035;47.792;8.724;2022-10-16T00:50:08;6.22;;;2.40;;
68212;SDS011;55035;47.792;8.724;2022-10-16T00:52:39;7.47;;;2.67;;
68212;SDS011;55035;47.792;8.724;2022-10-16T00:55:08;6.88;;;2.13;;
68212;SDS011;55035;47.792;8.724;2022-10-16T00:57:36;8.27;;;2.20;;
68212;SDS011;55035;47.792;8.724;2022-10-16T01:00:06;6.63;;;2.55;;
68212;SDS011;55035;47.792;8.724;2022-10-16T01:02:37;7.57;;;2.10;;
68212;SDS011;55035;47.792;8.724;2022-10-16T01:05:04;6.95;;;2.17;;
68212;SDS011;55035;47.792;8.724;2022-10-16T01:07:34;7.43;;;2.00;;
68212;SDS011;55035;47.792;8.724;2022-10-16T01:10:06;27.00;;;12.70;;
68212;SDS011;55035;47.792;8.724;2022-10-16T01:12:37;17.45;;;8.45;;
68212;SDS011;55035;47.792;8.724;2022-10-16T01:15:08;9.98;;;3.90;;
68212;SDS011;55035;47.792;8.724;2022-10-16T01:17:38;6.35;;;2.15;;
68212;SDS011;55035;47.792;8.724;2022-10-16T01:20:08;7.55;;;2.45;;
68212;SDS011;55035;47.792;8.724;2022-10-16T01:22:43;6.53;;;2.00;;
68212;SDS011;55035;47.792;8.724;2022-10-16T01:25:12;7.72;;;1.88;;
68212;SDS011;55035;47.792;8.724;2022-10-16T01:27:44;5.80;;;2.17;;
68212;SDS011;55035;47.792;8.724;2022-10-16T01:30:13;6.93;;;2.00;;
68212;SDS011;55035;47.792;8.724;2022-10-16T01:32:43;8.73;;;1.80;;
68212;SDS011;55035;47.792;8.724;2022-10-16T01:35:13;5.63;;;1.90;;
68212;SDS011;55035;47.792;8.724;2022-10-16T01:37:46;6.90;;;2.20;;
68212;SDS011;55035;47.792;8.724;2022-10-16T01:40:15;8.77;;;2.15;;
68212;SDS011;55035;47.792;8.724;2022-10-16T01:42:45;6.57;;;2.00;;
68212;SDS011;55035;47.792;8.724;2022-10-16T01:45:13;6.85;;;2.30;;
68212;SDS011;55035;47.792;8.724;2022-10-16T01:47:43;7.18;;;2.53;;
68212;SDS011;55035;47.792;8.724;2022-10-16T01:50:11;7.07;;;2.00;;
68212;SDS011;55035;47.792;8.724;2022-10-16T01:52:40;5.40;;;1.92;;
68212;SDS011;55035;47.792;8.724;2022-10-16T01:55:08;9.55;;;2.53;;
68212;SDS011;55035;47.792;8.724;2022-10-16T01:57:37;9.35;;;2.25;;
68212;SDS011;55035;47.792;8.724;2022-10-16T02:00:07;6.95;;;2.33;;
68212;SDS011;55035;47.792;8.724;2022-10-16T02:02:39;7.85;;;2.35;;
68212;SDS011;55035;47.792;8.724;2022-10-16T02:05:10;7.03;;;2.10;;
68212;SDS011;55035;47.792;8.724;2022-10-16T02:07:37;7.85;;;2.00;;
68212;SDS011;55035;47.792;8.724;2022-10-16T02:10:04;6.40;;;2.03;;
68212;SDS011;55035;47.792;8.724;2022-10-16T02:12:32;7.63;;;1.70;;
68212;SDS011;55035;47.792;8.724;2022-10-16T02:15:07;8.63;;;2.30;;
68212;SDS011;55035;47.792;8.724;2022-10-16T02:17:33;6.20;;;2.10;;
68212;SDS011;55035;47.792;8.724;2022-10-16T02:20:00;7.38;;;1.98;;
68212;SDS011;55035;47.792;8.724;2022-10-16T02:22:29;6.47;;;1.83;;
68212;SDS011;55035;47.792;8.724;2022-10-16T02:24:58;6.22;;;1.85;;
68212;SDS011;55035;47.792;8.724;2022-10-16T02:27:27;7.47;;;1.90;;
68212;SDS011;55035;47.792;8.724;2022-10-16T02:29:55;8.45;;;2.30;;
68212;SDS011;55035;47.792;8.724;2022-10-16T02:32:27;6.88;;;1.90;;
68212;SDS011;55035;47.792;8.724;2022-10-16T02:34:56;5.82;;;1.90;;
68212;SDS011;55035;47.792;8.724;2022-10-16T02:37:23;7.13;;;1.95;;
68212;SDS011;55035;47.792;8.724;2022-10-16T02:39:51;7.00;;;2.10;;
68212;SDS011;55035;47.792;8.724;2022-10-16T02:42:32;7.90;;;2.10;;
68212;SDS011;55035;47.792;8.724;2022-10-16T02:45:00;6.68;;;2.28;;
68212;SDS011;55035;47.792;8.724;2022-10-16T02:47:28;7.65;;;2.10;;
68212;SDS011;55035;47.792;8.724;2022-10-16T02:49:55;8.40;;;2.30;;
68212;SDS011;55035;47.792;8.724;2022-10-16T02:52:22;7.30;;;1.92;;
68212;SDS011;55035;47.792;8.724;2022-10-16T02:54:52;8.43;;;2.00;;
68212;SDS011;55035;47.792;8.724;2022-10-16T02:57:19;7.55;;;1.90;;
68212;SDS011;55035;47.792;8.724;2022-10-16T02:59:46;6.35;;;2.15;;
68212;SDS011;55035;47.792;8.724;2022-10-16T03:02:12;6.47;;;2.20;;
68212;SDS011;55035;47.792;8.724;2022-10-16T03:04:41;6.70;;;2.47;;
68212;SDS011;55035;47.792;8.724;2022-10-16T03:07:07;6.70;;;2.10;;
68212;SDS011;55035;47.792;8.724;2022-10-16T03:09:34;8.85;;;2.40;;
68212;SDS011;55035;47.792;8.724;2022-10-16T03:12:01;6.30;;;2.35;;
68212;SDS011;55035;47.792;8.724;2022-10-16T03:14:28;7.78;;;2.00;;
68212;SDS011;55035;47.792;8.724;2022-10-16T03:16:55;7.32;;;2.10;;
68212;SDS011;55035;47.792;8.724;2022-10-16T03:19:22;6.35;;;2.50;;
68212;SDS011;55035;47.792;8.724;2022-10-16T03:21:50;6.55;;;2.20;;
68212;SDS011;55035;47.792;8.724;2022-10-16T03:24:17;13.57;;;2.90;;
68212;SDS011;55035;47.792;8.724;2022-10-16T03:26:44;9.23;;;3.08;;
68212;SDS011;55035;47.792;8.724;2022-10-16T03:29:11;9.50;;;2.80;;
68212;SDS011;55035;47.792;8.724;2022-10-16T03:31:38;10.82;;;2.80;;
68212;SDS011;55035;47.792;8.724;2022-10-16T03:34:04;6.13;;;2.38;;
68212;SDS011;55035;47.792;8.724;2022-10-16T03:36:31;6.72;;;2.15;;
68212;SDS011;55035;47.792;8.724;2022-10-16T03:38:59;7.70;;;2.70;;
68212;SDS011;55035;47.792;8.724;2022-10-16T03:41:26;6.68;;;1.83;;
68212;SDS011;55035;47.792;8.724;2022-10-16T03:43:53;8.50;;;2.22;;
68212;SDS011;55035;47.792;8.724;2022-10-16T03:46:20;10.25;;;2.58;;
68212;SDS011;55035;47.792;8.724;2022-10-16T03:48:47;6.07;;;2.47;;
68212;SDS011;55035;47.792;8.724;2022-10-16T03:51:14;6.63;;;2.10;;
68212;SDS011;55035;47.792;8.724;2022-10-16T03:53:41;7.93;;;2.45;;
68212;SDS011;55035;47.792;8.724;2022-10-16T03:56:09;6.85;;;2.00;;
68212;SDS011;55035;47.792;8.724;2022-10-16T03:58:36;10.30;;;2.42;;
68212;SDS011;55035;47.792;8.724;2022-10-16T04:01:03;8.25;;;2.38;;
68212;SDS011;55035;47.792;8.724;2022-10-16T04:03:30;7.65;;;2.35;;
68212;SDS011;55035;47.792;8.724;2022-10-16T04:05:57;6.40;;;2.58;;
68212;SDS011;55035;47.792;8.724;2022-10-16T04:08:30;8.30;;;2.33;;
68212;SDS011;55035;47.792;8.724;2022-10-16T04:10:59;6.95;;;3.20;;
68212;SDS011;55035;47.792;8.724;2022-10-16T04:13:27;6.85;;;2.42;;
68212;SDS011;55035;47.792;8.724;2022-10-16T04:15:55;7.30;;;3.60;;
68212;SDS011;55035;47.792;8.724;2022-10-16T04:18:22;7.13;;;3.40;;
68212;SDS011;55035;47.792;8.724;2022-10-16T04:20:49;7.05;;;2.50;;
68212;SDS011;55035;47.792;8.724;2022-10-16T04:23:15;8.35;;;2.95;;
68212;SDS011;55035;47.792;8.724;2022-10-16T04:25:42;7.65;;;3.20;;
68212;SDS011;55035;47.792;8.724;2022-10-16T04:28:09;7.75;;;2.60;;
68212;SDS011;55035;47.792;8.724;2022-10-16T04:30:38;6.45;;;2.35;;
68212;SDS011;55035;47.792;8.724;2022-10-16T04:33:05;8.35;;;2.67;;
68212;SDS011;55035;47.792;8.724;2022-10-16T04:35:32;7.25;;;2.70;;
68212;SDS011;55035;47.792;8.724;2022-10-16T04:37:59;6.90;;;2.75;;
68212;SDS011;55035;47.792;8.724;2022-10-16T04:40:25;6.38;;;2.63;;
68212;SDS011;55035;47.792;8.724;2022-10-16T04:42:52;8.20;;;2.80;;
68212;SDS011;55035;47.792;8.724;2022-10-16T04:45:19;12.93;;;3.97;;
68212;SDS011;55035;47.792;8.724;2022-10-16T04:47:47;29.55;;;10.88;;
68212;SDS011;55035;47.792;8.724;2022-10-16T04:50:14;11.38;;;5.13;;
68212;SDS011;55035;47.792;8.724;2022-10-16T04:53:00;8.68;;;3.20;;
68212;SDS011;55035;47.792;8.724;2022-10-16T04:55:27;10.25;;;2.80;;
68212;SDS011;55035;47.792;8.724;2022-10-16T04:57:54;9.43;;;2.80;;
68212;SDS011;55035;47.792;8.724;2022-10-16T05:00:21;8.52;;;2.95;;
68212;SDS011;55035;47.792;8.724;2022-10-16T05:02:50;9.13;;;3.17;;
68212;SDS011;55035;47.792;8.724;2022-10-16T05:05:17;6.82;;;2.72;;
68212;SDS011;55035;47.792;8.724;2022-10-16T05:07:45;8.00;;;3.22;;
68212;SDS011;55035;47.792;8.724;2022-10-16T05:10:11;11.90;;;2.97;;
68212;SDS011;55035;47.792;8.724;2022-10-16T05:12:38;6.95;;;2.90;;
68212;SDS011;55035;47.792;8.724;2022-10-16T05:15:05;8.82;;;2.65;;
68212;SDS011;55035;47.792;8.724;2022-10-16T05:17:32;6.95;;;2.67;;
68212;SDS011;55035;47.792;8.724;2022-10-16T05:20:02;7.97;;;3.08;;
68212;SDS011;55035;47.792;8.724;2022-10-16T05:22:29;7.07;;;3.20;;
68212;SDS011;55035;47.792;8.724;2022-10-16T05:24:58;7.25;;;2.70;;
68212;SDS011;55035;47.792;8.724;2022-10-16T05:27:25;8.95;;;2.60;;
68212;SDS011;55035;47.792;8.724;2022-10-16T05:29:52;6.95;;;2.78;;
68212;SDS011;55035;47.792;8.724;2022-10-16T05:32:19;8.77;;;2.83;;
68212;SDS011;55035;47.792;8.724;2022-10-16T05:34:46;8.63;;;3.25;;
68212;SDS011;55035;47.792;8.724;2022-10-16T05:37:14;8.38;;;2.70;;
68212;SDS011;55035;47.792;8.724;2022-10-16T05:39:43;7.88;;;2.60;;
68212;SDS011;55035;47.792;8.724;2022-10-16T05:42:09;7.65;;;3.08;;
68212;SDS011;55035;47.792;8.724;2022-10-16T05:44:36;6.53;;;2.60;;
68212;SDS011;55035;47.792;8.724;2022-10-16T05:47:03;7.07;;;2.80;;
68212;SDS011;55035;47.792;8.724;2022-10-16T05:49:30;6.68;;;2.75;;
68212;SDS011;55035;47.792;8.724;2022-10-16T05:54:50;7.13;;;2.60;;
68212;SDS011;55035;47.792;8.724;2022-10-16T05:57:18;9.63;;;3.28;;
68212;SDS011;55035;47.792;8.724;2022-10-16T05:59:45;10.07;;;3.72;;
68212;SDS011;55035;47.792;8.724;2022-10-16T06:02:11;8.13;;;3.15;;
68212;SDS011;55035;47.792;8.724;2022-10-16T06:04:39;9.85;;;3.60;;
68212;SDS011;55035;47.792;8.724;2022-10-16T06:07:06;10.80;;;4.07;;
68212;SDS011;55035;47.792;8.724;2022-10-16T06:09:33;9.60;;;3.55;;
68212;SDS011;55035;47.792;8.724;2022-10-16T06:12:01;9.50;;;4.03;;
68212;SDS011;55035;47.792;8.724;2022-10-16T06:14:28;9.02;;;3.38;;
68212;SDS011;55035;47.792;8.724;2022-10-16T06:16:55;12.60;;;3.25;;
68212;SDS011;55035;47.792;8.724;2022-10-16T06:19:22;9.00;;;3.13;;
68212;SDS011;55035;47.792;8.724;2022-10-16T06:21:49;9.48;;;3.42;;
68212;SDS011;55035;47.792;8.724;2022-10-16T06:24:16;6.50;;;2.80;;
68212;SDS011;55035;47.792;8.724;2022-10-16T06:26:45;8.15;;;3.15;;
68212;SDS011;55035;47.792;8.724;2022-10-16T06:29:13;6.88;;;2.97;;
68212;SDS011;55035;47.792;8.724;2022-10-16T06:31:40;10.70;;;3.40;;
68212;SDS011;55035;47.792;8.724;2022-10-16T06:34:08;10.02;;;3.20;;
68212;SDS011;55035;47.792;8.724;2022-10-16T06:36:36;7.53;;;3.00;;
68212;SDS011;55035;47.792;8.724;2022-10-16T06:39:02;12.32;;;4.65;;
68212;SDS011;55035;47.792;8.724;2022-10-16T06:41:30;12.52;;;4.45;;
68212;SDS011;55035;47.792;8.724;2022-10-16T06:44:04;8.95;;;4.20;;
68212;SDS011;55035;47.792;8.724;2022-10-16T06:46:33;7.78;;;4.03;;
68212;SDS011;55035;47.792;8.724;2022-10-16T06:49:00;12.07;;;4.72;;
68212;SDS011;55035;47.792;8.724;2022-10-16T06:51:26;10.40;;;3.63;;
68212;SDS011;55035;47.792;8.724;2022-10-16T06:53:55;9.93;;;4.05;;
68212;SDS011;55035;47.792;8.724;2022-10-16T06:56:23;10.75;;;4.43;;
68212;SDS011;55035;47.792;8.724;2022-10-16T06:58:51;13.90;;;4.35;;
68212;SDS011;55035;47.792;8.724;2022-10-16T07:01:18;9.63;;;4.40;;
68212;SDS011;55035;47.792;8.724;2022-10-16T07:03:50;10.48;;;3.85;;
68212;SDS011;55035;47.792;8.724;2022-10-16T07:06:18;10.20;;;3.40;;
68212;SDS011;55035;47.792;8.724;2022-10-16T07:08:46;11.65;;;3.70;;
68212;SDS011;55035;47.792;8.724;2022-10-16T07:11:31;9.10;;;3.88;;
68212;SDS011;55035;47.792;8.724;2022-10-16T07:13:59;10.43;;;4.10;;
68212;SDS011;55035;47.792;8.724;2022-10-16T07:16:27;13.27;;;4.72;;
68212;SDS011;55035;47.792;8.724;2022-10-16T07:19:07;10.63;;;4.13;;
68212;SDS011;55035;47.792;8.724;2022-10-16T07:21:37;10.90;;;3.70;;
68212;SDS011;55035;47.792;8.724;2022-10-16T07:24:05;10.13;;;3.88;;
68212;SDS011;55035;47.792;8.724;2022-10-16T07:26:35;8.32;;;3.13;;
68212;SDS011;55035;47.792;8.724;2022-10-16T07:29:18;7.47;;;2.67;;
68212;SDS011;55035;47.792;8.724;2022-10-16T07:31:52;8.00;;;3.22;;
68212;SDS011;55035;47.792;8.724;2022-10-16T07:34:27;9.45;;;3.95;;
68212;SDS011;55035;47.792;8.724;2022-10-16T07:36:54;9.57;;;3.20;;
68212;SDS011;55035;47.792;8.724;2022-10-16T07:39:21;7.88;;;3.25;;
68212;SDS011;55035;47.792;8.724;2022-10-16T07:41:48;11.67;;;3.50;;
68212;SDS011;55035;47.792;8.724;2022-10-16T07:44:16;8.98;;;3.67;;
68212;SDS011;55035;47.792;8.724;2022-10-16T07:46:43;11.90;;;5.63;;
68212;SDS011;55035;47.792;8.724;2022-10-16T07:49:10;8.98;;;4.28;;
68212;SDS011;55035;47.792;8.724;2022-10-16T07:51:39;9.95;;;3.72;;
68212;SDS011;55035;47.792;8.724;2022-10-16T07:54:07;8.10;;;3.70;;
68212;SDS011;55035;47.792;8.724;2022-10-16T07:56:35;10.60;;;3.95;;
68212;SDS011;55035;47.792;8.724;2022-10-16T07:59:02;7.95;;;3.50;;
68212;SDS011;55035;47.792;8.724;2022-10-16T08:01:33;12.40;;;3.78;;
68212;SDS011;55035;47.792;8.724;2022-10-16T08:04:01;9.35;;;3.22;;
68212;SDS011;55035;47.792;8.724;2022-10-16T08:06:28;9.00;;;3.70;;
68212;SDS011;55035;47.792;8.724;2022-10-16T08:08:59;8.68;;;3.22;;
68212;SDS011;55035;47.792;8.724;2022-10-16T08:11:28;8.38;;;3.13;;
68212;SDS011;55035;47.792;8.724;2022-10-16T08:13:55;8.15;;;3.05;;
68212;SDS011;55035;47.792;8.724;2022-10-16T08:16:22;8.88;;;3.63;;
68212;SDS011;55035;47.792;8.724;2022-10-16T08:18:49;8.07;;;3.40;;
68212;SDS011;55035;47.792;8.724;2022-10-16T08:21:18;7.22;;;3.63;;
68212;SDS011;55035;47.792;8.724;2022-10-16T08:23:49;10.23;;;3.35;;
68212;SDS011;55035;47.792;8.724;2022-10-16T08:26:18;9.60;;;3.53;;
68212;SDS011;55035;47.792;8.724;2022-10-16T08:28:45;10.35;;;3.30;;
68212;SDS011;55035;47.792;8.724;2022-10-16T08:31:14;8.03;;;2.83;;
68212;SDS011;55035;47.792;8.724;2022-10-16T08:33:44;8.45;;;2.90;;
68212;SDS011;55035;47.792;8.724;2022-10-16T08:36:13;7.43;;;2.78;;
68212;SDS011;55035;47.792;8.724;2022-10-16T08:38:40;7.80;;;2.88;;
68212;SDS011;55035;47.792;8.724;2022-10-16T08:41:17;6.35;;;2.50;;
68212;SDS011;55035;47.792;8.724;2022-10-16T08:43:58;5.97;;;2.57;;
68212;SDS011;55035;47.792;8.724;2022-10-16T08:46:36;7.85;;;2.55;;
68212;SDS011;55035;47.792;8.724;2022-10-16T08:49:07;6.80;;;2.78;;
68212;SDS011;55035;47.792;8.724;2022-10-16T08:51:38;9.70;;;2.50;;
68212;SDS011;55035;47.792;8.724;2022-10-16T08:54:10;8.65;;;2.42;;
68212;SDS011;55035;47.792;8.724;2022-10-16T08:56:40;6.33;;;3.07;;
68212;SDS011;55035;47.792;8.724;2022-10-16T08:59:11;7.68;;;2.33;;
68212;SDS011;55035;47.792;8.724;2022-10-16T09:01:45;7.43;;;2.30;;
68212;SDS011;55035;47.792;8.724;2022-10-16T09:04:35;5.93;;;2.17;;
68212;SDS011;55035;47.792;8.724;2022-10-16T09:07:08;7.30;;;2.72;;
68212;SDS011;55035;47.792;8.724;2022-10-16T09:09:53;7.50;;;2.37;;
68212;SDS011;55035;47.792;8.724;2022-10-16T09:12:22;6.47;;;2.00;;
68212;SDS011;55035;47.792;8.724;2022-10-16T09:14:56;6.97;;;2.10;;
68212;SDS011;55035;47.792;8.724;2022-10-16T09:17:39;7.18;;;2.28;;
68212;SDS011;55035;47.792;8.724;2022-10-16T09:20:13;6.57;;;2.30;;
68212;SDS011;55035;47.792;8.724;2022-10-16T09:23:12;8.43;;;2.43;;
68212;SDS011;55035;47.792;8.724;2022-10-16T09:25:41;5.15;;;2.00;;
68212;SDS011;55035;47.792;8.724;2022-10-16T09:28:09;6.10;;;1.90;;
68212;SDS011;55035;47.792;8.724;2022-10-16T09:30:38;5.93;;;2.20;;
68212;SDS011;55035;47.792;8.724;2022-10-16T09:33:05;7.07;;;2.20;;
68212;SDS011;55035;47.792;8.724;2022-10-16T09:35:36;6.37;;;2.00;;
68212;SDS011;55035;47.792;8.724;2022-10-16T09:38:05;5.00;;;1.92;;
68212;SDS011;55035;47.792;8.724;2022-10-16T09:40:34;6.68;;;1.92;;
68212;SDS011;55035;47.792;8.724;2022-10-16T09:43:03;5.90;;;2.00;;
68212;SDS011;55035;47.792;8.724;2022-10-16T09:45:33;6.43;;;2.00;;
68212;SDS011;55035;47.792;8.724;2022-10-16T09:48:05;7.20;;;2.00;;
68212;SDS011;55035;47.792;8.724;2022-10-16T09:50:57;6.13;;;2.00;;
68212;SDS011;55035;47.792;8.724;2022-10-16T09:53:41;7.80;;;1.85;;
68212;SDS011;55035;47.792;8.724;2022-10-16T09:56:30;6.50;;;1.70;;
68212;SDS011;55035;47.792;8.724;2022-10-16T09:59:02;6.28;;;2.00;;
68212;SDS011;55035;47.792;8.724;2022-10-16T10:01:30;5.83;;;1.90;;
68212;SDS011;55035;47.792;8.724;2022-10-16T10:03:59;6.18;;;2.10;;
68212;SDS011;55035;47.792;8.724;2022-10-16T10:06:29;6.72;;;2.10;;
68212;SDS011;55035;47.792;8.724;2022-10-16T10:09:00;7.22;;;2.00;;
68212;SDS011;55035;47.792;8.724;2022-10-16T10:11:38;7.88;;;2.00;;
68212;SDS011;55035;47.792;8.724;2022-10-16T10:14:05;5.83;;;2.20;;
68212;SDS011;55035;47.792;8.724;2022-10-16T10:16:32;6.50;;;2.00;;
68212;SDS011;55035;47.792;8.724;2022-10-16T10:19:01;5.03;;;2.00;;
68212;SDS011;55035;47.792;8.724;2022-10-16T10:21:27;6.60;;;2.15;;
68212;SDS011;55035;47.792;8.724;2022-10-16T10:23:54;5.75;;;1.85;;
68212;SDS011;55035;47.792;8.724;2022-10-16T10:26:23;5.77;;;2.00;;
68212;SDS011;55035;47.792;8.724;2022-10-16T10:28:53;5.75;;;1.38;;
68212;SDS011;55035;47.792;8.724;2022-10-16T10:31:25;5.75;;;1.75;;
68212;SDS011;55035;47.792;8.724;2022-10-16T10:33:55;4.63;;;1.52;;
68212;SDS011;55035;47.792;8.724;2022-10-16T10:36:30;5.25;;;1.90;;
68212;SDS011;55035;47.792;8.724;2022-10-16T10:38:59;6.03;;;2.30;;
68212;SDS011;55035;47.792;8.724;2022-10-16T10:44:15;9.20;;;3.20;;
68212;SDS011;55035;47.792;8.724;2022-10-16T10:46:46;6.30;;;2.20;;
68212;SDS011;55035;47.792;8.724;2022-10-16T10:49:19;7.63;;;2.05;;
68212;SDS011;55035;47.792;8.724;2022-10-16T10:51:51;6.10;;;1.70;;
68212;SDS011;55035;47.792;8.724;2022-10-16T10:54:23;8.63;;;2.40;;
68212;SDS011;55035;47.792;8.724;2022-10-16T10:56:55;6.97;;;1.75;;
68212;SDS011;55035;47.792;8.724;2022-10-16T10:59:37;5.30;;;1.70;;
68212;SDS011;55035;47.792;8.724;2022-10-16T11:02:10;9.25;;;1.98;;
68212;SDS011;55035;47.792;8.724;2022-10-16T11:04:43;6.93;;;1.93;;
68212;SDS011;55035;47.792;8.724;2022-10-16T11:07:15;5.57;;;1.60;;
68212;SDS011;55035;47.792;8.724;2022-10-16T11:09:44;5.03;;;1.70;;
68212;SDS011;55035;47.792;8.724;2022-10-16T11:12:13;4.78;;;1.70;;
68212;SDS011;55035;47.792;8.724;2022-10-16T11:14:42;6.15;;;1.73;;
68212;SDS011;55035;47.792;8.724;2022-10-16T11:17:13;8.87;;;2.17;;
68212;SDS011;55035;47.792;8.724;2022-10-16T11:19:43;6.18;;;1.88;;
68212;SDS011;55035;47.792;8.724;2022-10-16T11:22:13;6.97;;;1.60;;
68212;SDS011;55035;47.792;8.724;2022-10-16T11:24:49;7.72;;;1.60;;
68212;SDS011;55035;47.792;8.724;2022-10-16T11:27:19;5.00;;;1.60;;
68212;SDS011;55035;47.792;8.724;2022-10-16T11:29:49;5.20;;;1.73;;
68212;SDS011;55035;47.792;8.724;2022-10-16T11:32:19;6.40;;;1.60;;
68212;SDS011;55035;47.792;8.724;2022-10-16T11:34:49;7.40;;;1.70;;
68212;SDS011;55035;47.792;8.724;2022-10-16T11:37:17;6.07;;;1.55;;
68212;SDS011;55035;47.792;8.724;2022-10-16T11:39:45;5.95;;;1.80;;
68212;SDS011;55035;47.792;8.724;2022-10-16T11:42:16;5.57;;;1.67;;
68212;SDS011;55035;47.792;8.724;2022-10-16T11:45:16;7.15;;;1.80;;
68212;SDS011;55035;47.792;8.724;2022-10-16T11:47:51;6.97;;;1.70;;
68212;SDS011;55035;47.792;8.724;2022-10-16T11:50:22;5.75;;;1.95;;
68212;SDS011;55035;47.792;8.724;2022-10-16T11:52:56;5.53;;;1.48;;
68212;SDS011;55035;47.792;8.724;2022-10-16T11:55:26;4.43;;;1.33;;
68212;SDS011;55035;47.792;8.724;2022-10-16T11:57:59;6.47;;;1.50;;
68212;SDS011;55035;47.792;8.724;2022-10-16T12:00:28;5.68;;;2.03;;
68212;SDS011;55035;47.792;8.724;2022-10-16T12:02:59;4.47;;;1.55;;
68212;SDS011;55035;47.792;8.724;2022-10-16T12:05:29;4.38;;;1.40;;
68212;SDS011;55035;47.792;8.724;2022-10-16T12:08:02;6.10;;;1.90;;
68212;SDS011;55035;47.792;8.724;2022-10-16T12:10:30;4.32;;;1.50;;
68212;SDS011;55035;47.792;8.724;2022-10-16T12:13:03;4.70;;;1.77;;
68212;SDS011;55035;47.792;8.724;2022-10-16T12:15:31;6.15;;;1.73;;
68212;SDS011;55035;47.792;8.724;2022-10-16T12:17:58;4.70;;;1.40;;
68212;SDS011;55035;47.792;8.724;2022-10-16T12:20:26;5.13;;;1.87;;
68212;SDS011;55035;47.792;8.724;2022-10-16T12:22:56;5.18;;;1.40;;
68212;SDS011;55035;47.792;8.724;2022-10-16T12:25:24;4.95;;;1.50;;
68212;SDS011;55035;47.792;8.724;2022-10-16T12:27:54;5.18;;;1.63;;
68212;SDS011;55035;47.792;8.724;2022-10-16T12:30:24;4.93;;;1.60;;
68212;SDS011;55035;47.792;8.724;2022-10-16T12:32:53;6.57;;;1.50;;
68212;SDS011;55035;47.792;8.724;2022-10-16T12:35:20;5.07;;;1.50;;
68212;SDS011;55035;47.792;8.724;2022-10-16T12:37:48;5.30;;;1.45;;
68212;SDS011;55035;47.792;8.724;2022-10-16T12:40:22;6.22;;;1.40;;
68212;SDS011;55035;47.792;8.724;2022-10-16T12:42:50;4.82;;;1.40;;
68212;SDS011;55035;47.792;8.724;2022-10-16T12:45:28;5.33;;;1.93;;
68212;SDS011;55035;47.792;8.724;2022-10-16T12:47:56;6.43;;;1.20;;
68212;SDS011;55035;47.792;8.724;2022-10-16T12:50:25;6.40;;;2.33;;
68212;SDS011;55035;47.792;8.724;2022-10-16T12:52:53;4.93;;;1.42;;
68212;SDS011;55035;47.792;8.724;2022-10-16T12:55:20;4.57;;;1.23;;
68212;SDS011;55035;47.792;8.724;2022-10-16T12:57:55;5.33;;;1.53;;
68212;SDS011;55035;47.792;8.724;2022-10-16T13:00:25;5.10;;;1.67;;
68212;SDS011;55035;47.792;8.724;2022-10-16T13:05:58;7.00;;;1.73;;
68212;SDS011;55035;47.792;8.724;2022-10-16T13:08:39;4.40;;;1.10;;
68212;SDS011;55035;47.792;8.724;2022-10-16T13:11:12;5.03;;;1.30;;
68212;SDS011;55035;47.792;8.724;2022-10-16T13:13:48;5.95;;;1.80;;
68212;SDS011;55035;47.792;8.724;2022-10-16T13:16:23;6.03;;;1.70;;
68212;SDS011;55035;47.792;8.724;2022-10-16T13:18:55;6.78;;;1.80;;
68212;SDS011;55035;47.792;8.724;2022-10-16T13:21:30;4.40;;;1.30;;
68212;SDS011;55035;47.792;8.724;2022-10-16T13:24:02;5.80;;;1.57;;
68212;SDS011;55035;47.792;8.724;2022-10-16T13:26:34;4.90;;;1.70;;
68212;SDS011;55035;47.792;8.724;2022-10-16T13:29:06;5.95;;;1.20;;
68212;SDS011;55035;47.792;8.724;2022-10-16T13:31:33;5.20;;;1.48;;
68212;SDS011;55035;47.792;8.724;2022-10-16T13:34:04;7.88;;;2.08;;
68212;SDS011;55035;47.792;8.724;2022-10-16T13:36:42;4.20;;;1.27;;
68212;SDS011;55035;47.792;8.724;2022-10-16T13:39:10;6.25;;;1.63;;
68212;SDS011;55035;47.792;8.724;2022-10-16T13:41:38;4.63;;;1.15;;
68212;SDS011;55035;47.792;8.724;2022-10-16T13:44:05;5.97;;;1.58;;
68212;SDS011;55035;47.792;8.724;2022-10-16T13:46:35;4.20;;;1.23;;
68212;SDS011;55035;47.792;8.724;2022-10-16T13:49:03;4.30;;;1.13;;
68212;SDS011;55035;47.792;8.724;2022-10-16T13:51:30;6.90;;;1.92;;
68212;SDS011;55035;47.792;8.724;2022-10-16T13:53:59;4.90;;;1.30;;
68212;SDS011;55035;47.792;8.724;2022-10-16T13:56:26;6.50;;;1.73;;
68212;SDS011;55035;47.792;8.724;2022-10-16T13:59:06;5.20;;;1.70;;
68212;SDS011;55035;47.792;8.724;2022-10-16T14:01:33;7.73;;;1.70;;
68212;SDS011;55035;47.792;8.724;2022-10-16T14:04:02;4.60;;;1.55;;
68212;SDS011;55035;47.792;8.724;2022-10-16T14:06:30;7.22;;;1.65;;
68212;SDS011;55035;47.792;8.724;2022-10-16T14:09:00;6.00;;;1.30;;
68212;SDS011;55035;47.792;8.724;2022-10-16T14:11:27;5.22;;;1.85;;
68212;SDS011;55035;47.792;8.724;2022-10-16T14:13:56;5.93;;;1.50;;
68212;SDS011;55035;47.792;8.724;2022-10-16T14:16:27;5.88;;;1.13;;
68212;SDS011;55035;47.792;8.724;2022-10-16T14:18:56;6.53;;;1.20;;
68212;SDS011;55035;47.792;8.724;2022-10-16T14:21:24;7.32;;;1.30;;
68212;SDS011;55035;47.792;8.724;2022-10-16T14:23:52;5.28;;;1.40;;
68212;SDS011;55035;47.792;8.724;2022-10-16T14:26:21;4.20;;;1.20;;
68212;SDS011;55035;47.792;8.724;2022-10-16T14:28:49;5.55;;;1.33;;
68212;SDS011;55035;47.792;8.724;2022-10-16T14:34:28;9.10;;;1.70;;
68212;SDS011;55035;47.792;8.724;2022-10-16T14:37:22;6.50;;;1.50;;
68212;SDS011;55035;47.792;8.724;2022-10-16T14:39:50;4.83;;;1.70;;
68212;SDS011;55035;47.792;8.724;2022-10-16T14:42:19;5.65;;;1.30;;
68212;SDS011;55035;47.792;8.724;2022-10-16T14:44:49;5.65;;;1.40;;
68212;SDS011;55035;47.792;8.724;2022-10-16T14:47:18;7.47;;;1.20;;
68212;SDS011;55035;47.792;8.724;2022-10-16T14:49:49;6.38;;;1.60;;
68212;SDS011;55035;47.792;8.724;2022-10-16T14:52:17;4.90;;;1.20;;
68212;SDS011;55035;47.792;8.724;2022-10-16T14:54:47;5.70;;;1.55;;
68212;SDS011;55035;47.792;8.724;2022-10-16T14:57:16;5.65;;;1.52;;
68212;SDS011;55035;47.792;8.724;2022-10-16T14:59:47;5.22;;;1.52;;
68212;SDS011;55035;47.792;8.724;2022-10-16T15:02:25;5.10;;;1.25;;
68212;SDS011;55035;47.792;8.724;2022-10-16T15:05:04;4.70;;;1.40;;
68212;SDS011;55035;47.792;8.724;2022-10-16T15:07:38;6.22;;;1.83;;
68212;SDS011;55035;47.792;8.724;2022-10-16T15:10:05;7.60;;;1.52;;
68212;SDS011;55035;47.792;8.724;2022-10-16T15:12:32;5.28;;;1.40;;